sensor_id;sensor_type;location;lat;lon;timestamp;P1;durP1;ratioP1;P2;durP2;ratioP2
48363;SDS011;34170;54.364;18.582;2023-02-19T00:01:46;11.32;;;1.23;;
48363;SDS011;34170;54.364;18.582;2023-02-19T00:04:15;9.07;;;1.33;;
48363;SDS011;34170;54.364;18.582;2023-02-19T00:06:48;10.95;;;1.55;;
48363;SDS011;34170;54.364;18.582;2023-02-19T00:09:16;8.30;;;1.00;;
48363;SDS011;34170;54.364;18.582;2023-02-19T00:11:45;10.23;;;2.17;;
48363;SDS011;34170;54.364;18.582;2023-02-19T00:14:15;7.65;;;2.05;;
48363;SDS011;34170;54.364;18.582;2023-02-19T00:16:47;12.93;;;1.55;;
48363;SDS011;34170;54.364;18.582;2023-02-19T00:19:15;7.07;;;0.95;;
48363;SDS011;34170;54.364;18.582;2023-02-19T00:21:44;4.50;;;0.98;;
48363;SDS011;34170;54.364;18.582;2023-02-19T00:24:13;12.15;;;1.63;;
48363;SDS011;34170;54.364;18.582;2023-02-19T00:26:41;11.13;;;1.40;;
48363;SDS011;34170;54.364;18.582;2023-02-19T00:29:11;10.77;;;1.38;;
48363;SDS011;34170;54.364;18.582;2023-02-19T00:31:40;6.00;;;1.10;;
48363;SDS011;34170;54.364;18.582;2023-02-19T00:34:09;9.13;;;1.48;;
48363;SDS011;34170;54.364;18.582;2023-02-19T00:36:37;10.48;;;1.42;;
48363;SDS011;34170;54.364;18.582;2023-02-19T00:39:06;8.00;;;1.23;;
48363;SDS011;34170;54.364;18.582;2023-02-19T00:41:34;13.60;;;1.88;;
48363;SDS011;34170;54.364;18.582;2023-02-19T00:44:03;11.60;;;1.58;;
48363;SDS011;34170;54.364;18.582;2023-02-19T00:46:33;8.20;;;1.42;;
48363;SDS011;34170;54.364;18.582;2023-02-19T00:49:03;7.20;;;1.13;;
48363;SDS011;34170;54.364;18.582;2023-02-19T00:51:33;8.18;;;1.15;;
48363;SDS011;34170;54.364;18.582;2023-02-19T00:54:03;7.50;;;1.13;;
48363;SDS011;34170;54.364;18.582;2023-02-19T00:56:31;6.25;;;0.85;;
48363;SDS011;34170;54.364;18.582;2023-02-19T00:58:59;9.32;;;2.15;;
48363;SDS011;34170;54.364;18.582;2023-02-19T01:01:27;9.45;;;1.38;;
48363;SDS011;34170;54.364;18.582;2023-02-19T01:03:54;8.50;;;1.15;;
48363;SDS011;34170;54.364;18.582;2023-02-19T01:06:22;7.57;;;0.80;;
48363;SDS011;34170;54.364;18.582;2023-02-19T01:08:50;8.63;;;1.23;;
48363;SDS011;34170;54.364;18.582;2023-02-19T01:11:17;13.43;;;1.55;;
48363;SDS011;34170;54.364;18.582;2023-02-19T01:13:46;6.97;;;0.95;;
48363;SDS011;34170;54.364;18.582;2023-02-19T01:16:18;10.45;;;1.40;;
48363;SDS011;34170;54.364;18.582;2023-02-19T01:18:48;8.90;;;1.00;;
48363;SDS011;34170;54.364;18.582;2023-02-19T01:21:20;8.82;;;1.02;;
48363;SDS011;34170;54.364;18.582;2023-02-19T01:23:50;6.65;;;0.90;;
48363;SDS011;34170;54.364;18.582;2023-02-19T01:26:22;9.82;;;1.73;;
48363;SDS011;34170;54.364;18.582;2023-02-19T01:28:52;10.85;;;2.05;;
48363;SDS011;34170;54.364;18.582;2023-02-19T01:31:20;6.85;;;1.02;;
48363;SDS011;34170;54.364;18.582;2023-02-19T01:33:54;6.47;;;1.15;;
48363;SDS011;34170;54.364;18.582;2023-02-19T01:36:23;7.68;;;1.35;;
48363;SDS011;34170;54.364;18.582;2023-02-19T01:38:52;7.68;;;1.65;;
48363;SDS011;34170;54.364;18.582;2023-02-19T01:41:21;12.38;;;4.18;;
48363;SDS011;34170;54.364;18.582;2023-02-19T01:46:24;9.85;;;1.10;;
48363;SDS011;34170;54.364;18.582;2023-02-19T01:49:05;13.75;;;1.48;;
48363;SDS011;34170;54.364;18.582;2023-02-19T01:51:34;10.23;;;1.70;;
48363;SDS011;34170;54.364;18.582;2023-02-19T01:54:04;5.85;;;0.70;;
48363;SDS011;34170;54.364;18.582;2023-02-19T01:56:35;5.65;;;0.82;;
48363;SDS011;34170;54.364;18.582;2023-02-19T01:59:05;4.72;;;0.90;;
48363;SDS011;34170;54.364;18.582;2023-02-19T02:01:34;8.82;;;1.10;;
48363;SDS011;34170;54.364;18.582;2023-02-19T02:04:04;12.45;;;1.73;;
48363;SDS011;34170;54.364;18.582;2023-02-19T02:06:35;10.88;;;1.00;;
48363;SDS011;34170;54.364;18.582;2023-02-19T02:09:09;8.30;;;1.30;;
48363;SDS011;34170;54.364;18.582;2023-02-19T02:11:56;9.73;;;1.33;;
48363;SDS011;34170;54.364;18.582;2023-02-19T02:14:24;10.60;;;1.75;;
48363;SDS011;34170;54.364;18.582;2023-02-19T02:22:18;11.30;;;1.77;;
48363;SDS011;34170;54.364;18.582;2023-02-19T02:30:37;7.25;;;1.27;;
48363;SDS011;34170;54.364;18.582;2023-02-19T02:38:50;13.07;;;2.60;;
48363;SDS011;34170;54.364;18.582;2023-02-19T02:41:22;10.88;;;6.25;;
48363;SDS011;34170;54.364;18.582;2023-02-19T02:43:50;11.88;;;4.22;;
48363;SDS011;34170;54.364;18.582;2023-02-19T02:46:20;15.60;;;2.40;;
48363;SDS011;34170;54.364;18.582;2023-02-19T02:48:52;10.02;;;1.85;;
48363;SDS011;34170;54.364;18.582;2023-02-19T02:51:28;8.23;;;1.38;;
48363;SDS011;34170;54.364;18.582;2023-02-19T02:54:11;9.98;;;1.30;;
48363;SDS011;34170;54.364;18.582;2023-02-19T02:57:06;10.65;;;1.10;;
48363;SDS011;34170;54.364;18.582;2023-02-19T02:59:42;6.55;;;1.10;;
48363;SDS011;34170;54.364;18.582;2023-02-19T03:07:45;8.00;;;1.80;;
48363;SDS011;34170;54.364;18.582;2023-02-19T03:10:35;7.85;;;1.38;;
48363;SDS011;34170;54.364;18.582;2023-02-19T03:13:21;8.32;;;1.48;;
48363;SDS011;34170;54.364;18.582;2023-02-19T03:16:17;11.35;;;1.17;;
48363;SDS011;34170;54.364;18.582;2023-02-19T03:19:10;5.90;;;0.90;;
48363;SDS011;34170;54.364;18.582;2023-02-19T03:24:22;11.27;;;1.20;;
48363;SDS011;34170;54.364;18.582;2023-02-19T03:27:11;5.38;;;0.95;;
48363;SDS011;34170;54.364;18.582;2023-02-19T03:29:45;8.07;;;1.08;;
48363;SDS011;34170;54.364;18.582;2023-02-19T03:32:19;6.03;;;1.50;;
48363;SDS011;34170;54.364;18.582;2023-02-19T03:34:53;6.97;;;1.20;;
48363;SDS011;34170;54.364;18.582;2023-02-19T03:37:32;5.80;;;1.10;;
48363;SDS011;34170;54.364;18.582;2023-02-19T03:40:05;15.63;;;1.90;;
48363;SDS011;34170;54.364;18.582;2023-02-19T03:45:32;11.45;;;1.40;;
48363;SDS011;34170;54.364;18.582;2023-02-19T03:51:17;5.75;;;1.48;;
48363;SDS011;34170;54.364;18.582;2023-02-19T03:57:14;7.05;;;0.98;;
48363;SDS011;34170;54.364;18.582;2023-02-19T03:59:47;9.25;;;1.38;;
48363;SDS011;34170;54.364;18.582;2023-02-19T04:02:27;16.42;;;1.73;;
48363;SDS011;34170;54.364;18.582;2023-02-19T04:05:06;8.40;;;1.45;;
48363;SDS011;34170;54.364;18.582;2023-02-19T04:07:41;6.53;;;0.88;;
48363;SDS011;34170;54.364;18.582;2023-02-19T04:10:14;12.35;;;1.63;;
48363;SDS011;34170;54.364;18.582;2023-02-19T04:12:49;8.55;;;1.10;;
48363;SDS011;34170;54.364;18.582;2023-02-19T04:15:23;8.32;;;1.40;;
48363;SDS011;34170;54.364;18.582;2023-02-19T04:18:01;9.05;;;1.65;;
48363;SDS011;34170;54.364;18.582;2023-02-19T04:20:35;10.15;;;1.20;;
48363;SDS011;34170;54.364;18.582;2023-02-19T04:23:10;20.33;;;1.40;;
48363;SDS011;34170;54.364;18.582;2023-02-19T04:25:39;5.13;;;0.75;;
48363;SDS011;34170;54.364;18.582;2023-02-19T04:28:11;12.27;;;1.20;;
48363;SDS011;34170;54.364;18.582;2023-02-19T04:30:40;7.88;;;1.58;;
48363;SDS011;34170;54.364;18.582;2023-02-19T04:33:08;5.78;;;0.93;;
48363;SDS011;34170;54.364;18.582;2023-02-19T04:35:36;10.68;;;1.15;;
48363;SDS011;34170;54.364;18.582;2023-02-19T04:38:03;11.25;;;1.00;;
48363;SDS011;34170;54.364;18.582;2023-02-19T04:40:30;11.80;;;1.60;;
48363;SDS011;34170;54.364;18.582;2023-02-19T04:42:58;6.00;;;0.65;;
48363;SDS011;34170;54.364;18.582;2023-02-19T04:45:25;9.77;;;1.20;;
48363;SDS011;34170;54.364;18.582;2023-02-19T04:47:53;9.88;;;1.25;;
48363;SDS011;34170;54.364;18.582;2023-02-19T04:50:20;9.13;;;1.35;;
48363;SDS011;34170;54.364;18.582;2023-02-19T04:52:49;8.63;;;0.80;;
48363;SDS011;34170;54.364;18.582;2023-02-19T04:55:16;8.80;;;1.05;;
48363;SDS011;34170;54.364;18.582;2023-02-19T04:57:44;11.30;;;2.13;;
48363;SDS011;34170;54.364;18.582;2023-02-19T05:00:11;6.43;;;0.80;;
48363;SDS011;34170;54.364;18.582;2023-02-19T05:02:39;7.38;;;1.20;;
48363;SDS011;34170;54.364;18.582;2023-02-19T05:05:07;21.15;;;2.42;;
48363;SDS011;34170;54.364;18.582;2023-02-19T05:07:34;9.88;;;1.13;;
48363;SDS011;34170;54.364;18.582;2023-02-19T05:10:02;11.43;;;1.20;;
48363;SDS011;34170;54.364;18.582;2023-02-19T05:12:30;7.20;;;1.85;;
48363;SDS011;34170;54.364;18.582;2023-02-19T05:14:57;10.77;;;1.75;;
48363;SDS011;34170;54.364;18.582;2023-02-19T05:17:25;8.13;;;1.83;;
48363;SDS011;34170;54.364;18.582;2023-02-19T05:19:52;20.75;;;9.02;;
48363;SDS011;34170;54.364;18.582;2023-02-19T05:22:20;9.95;;;1.67;;
48363;SDS011;34170;54.364;18.582;2023-02-19T05:24:47;12.27;;;1.33;;
48363;SDS011;34170;54.364;18.582;2023-02-19T05:27:14;9.82;;;1.70;;
48363;SDS011;34170;54.364;18.582;2023-02-19T05:29:42;10.75;;;1.33;;
48363;SDS011;34170;54.364;18.582;2023-02-19T05:32:09;7.90;;;1.30;;
48363;SDS011;34170;54.364;18.582;2023-02-19T05:34:36;10.90;;;1.40;;
48363;SDS011;34170;54.364;18.582;2023-02-19T05:37:04;4.65;;;0.82;;
48363;SDS011;34170;54.364;18.582;2023-02-19T05:39:31;4.43;;;1.02;;
48363;SDS011;34170;54.364;18.582;2023-02-19T05:41:59;10.45;;;1.50;;
48363;SDS011;34170;54.364;18.582;2023-02-19T05:44:26;7.97;;;0.90;;
48363;SDS011;34170;54.364;18.582;2023-02-19T05:46:54;9.23;;;0.98;;
48363;SDS011;34170;54.364;18.582;2023-02-19T05:49:21;8.88;;;1.77;;
48363;SDS011;34170;54.364;18.582;2023-02-19T05:51:49;9.05;;;1.15;;
48363;SDS011;34170;54.364;18.582;2023-02-19T05:54:17;10.73;;;1.48;;
48363;SDS011;34170;54.364;18.582;2023-02-19T05:56:44;8.63;;;1.38;;
48363;SDS011;34170;54.364;18.582;2023-02-19T05:59:15;11.65;;;1.17;;
48363;SDS011;34170;54.364;18.582;2023-02-19T06:01:45;8.90;;;2.13;;
48363;SDS011;34170;54.364;18.582;2023-02-19T06:04:13;9.40;;;1.75;;
48363;SDS011;34170;54.364;18.582;2023-02-19T06:06:42;16.50;;;2.13;;
48363;SDS011;34170;54.364;18.582;2023-02-19T06:09:09;10.85;;;2.42;;
48363;SDS011;34170;54.364;18.582;2023-02-19T06:11:37;11.15;;;2.65;;
48363;SDS011;34170;54.364;18.582;2023-02-19T06:14:05;12.43;;;2.13;;
48363;SDS011;34170;54.364;18.582;2023-02-19T06:16:33;13.15;;;2.00;;
48363;SDS011;34170;54.364;18.582;2023-02-19T06:19:01;10.50;;;1.88;;
48363;SDS011;34170;54.364;18.582;2023-02-19T06:21:30;9.88;;;2.05;;
48363;SDS011;34170;54.364;18.582;2023-02-19T06:23:57;9.02;;;1.48;;
48363;SDS011;34170;54.364;18.582;2023-02-19T06:26:25;6.45;;;1.10;;
48363;SDS011;34170;54.364;18.582;2023-02-19T06:28:52;11.43;;;1.67;;
48363;SDS011;34170;54.364;18.582;2023-02-19T06:31:20;9.35;;;1.88;;
48363;SDS011;34170;54.364;18.582;2023-02-19T06:33:49;10.30;;;1.63;;
48363;SDS011;34170;54.364;18.582;2023-02-19T06:36:19;7.55;;;1.70;;
48363;SDS011;34170;54.364;18.582;2023-02-19T06:38:47;9.63;;;2.03;;
48363;SDS011;34170;54.364;18.582;2023-02-19T06:41:15;5.07;;;1.20;;
48363;SDS011;34170;54.364;18.582;2023-02-19T06:43:43;5.90;;;1.08;;
48363;SDS011;34170;54.364;18.582;2023-02-19T06:46:12;9.23;;;2.03;;
48363;SDS011;34170;54.364;18.582;2023-02-19T06:48:41;9.82;;;1.58;;
48363;SDS011;34170;54.364;18.582;2023-02-19T06:51:14;14.35;;;2.58;;
48363;SDS011;34170;54.364;18.582;2023-02-19T06:53:44;9.52;;;1.63;;
48363;SDS011;34170;54.364;18.582;2023-02-19T06:56:31;10.63;;;1.65;;
48363;SDS011;34170;54.364;18.582;2023-02-19T06:59:01;8.20;;;1.23;;
48363;SDS011;34170;54.364;18.582;2023-02-19T07:01:30;12.25;;;1.67;;
48363;SDS011;34170;54.364;18.582;2023-02-19T07:03:59;8.15;;;1.50;;
48363;SDS011;34170;54.364;18.582;2023-02-19T07:06:28;9.18;;;1.50;;
48363;SDS011;34170;54.364;18.582;2023-02-19T07:08:56;12.55;;;1.70;;
48363;SDS011;34170;54.364;18.582;2023-02-19T07:11:25;11.57;;;1.65;;
48363;SDS011;34170;54.364;18.582;2023-02-19T07:13:55;14.15;;;1.33;;
48363;SDS011;34170;54.364;18.582;2023-02-19T07:16:27;8.63;;;1.00;;
48363;SDS011;34170;54.364;18.582;2023-02-19T07:18:56;8.00;;;1.20;;
48363;SDS011;34170;54.364;18.582;2023-02-19T07:21:25;6.95;;;1.30;;
48363;SDS011;34170;54.364;18.582;2023-02-19T07:23:53;8.88;;;1.48;;
48363;SDS011;34170;54.364;18.582;2023-02-19T07:26:21;7.22;;;1.42;;
48363;SDS011;34170;54.364;18.582;2023-02-19T07:28:49;11.80;;;2.03;;
48363;SDS011;34170;54.364;18.582;2023-02-19T07:31:18;10.52;;;1.55;;
48363;SDS011;34170;54.364;18.582;2023-02-19T07:33:48;5.30;;;1.20;;
48363;SDS011;34170;54.364;18.582;2023-02-19T07:36:16;11.60;;;1.80;;
48363;SDS011;34170;54.364;18.582;2023-02-19T07:38:44;8.32;;;1.25;;
48363;SDS011;34170;54.364;18.582;2023-02-19T07:41:12;7.13;;;1.42;;
48363;SDS011;34170;54.364;18.582;2023-02-19T07:43:40;5.35;;;1.10;;
48363;SDS011;34170;54.364;18.582;2023-02-19T07:46:08;14.20;;;2.33;;
48363;SDS011;34170;54.364;18.582;2023-02-19T07:48:38;5.53;;;1.02;;
48363;SDS011;34170;54.364;18.582;2023-02-19T07:51:09;10.30;;;1.58;;
48363;SDS011;34170;54.364;18.582;2023-02-19T07:53:38;6.05;;;1.13;;
48363;SDS011;34170;54.364;18.582;2023-02-19T07:56:06;6.82;;;0.80;;
48363;SDS011;34170;54.364;18.582;2023-02-19T07:58:34;6.18;;;1.35;;
48363;SDS011;34170;54.364;18.582;2023-02-19T08:04:06;8.82;;;1.00;;
48363;SDS011;34170;54.364;18.582;2023-02-19T08:06:33;8.15;;;1.30;;
48363;SDS011;34170;54.364;18.582;2023-02-19T08:09:00;8.43;;;0.90;;
48363;SDS011;34170;54.364;18.582;2023-02-19T08:11:29;6.28;;;1.27;;
48363;SDS011;34170;54.364;18.582;2023-02-19T08:14:15;9.63;;;1.10;;
48363;SDS011;34170;54.364;18.582;2023-02-19T08:16:49;2.83;;;0.77;;
48363;SDS011;34170;54.364;18.582;2023-02-19T08:19:17;6.57;;;0.80;;
48363;SDS011;34170;54.364;18.582;2023-02-19T08:21:46;6.80;;;1.48;;
48363;SDS011;34170;54.364;18.582;2023-02-19T08:24:13;4.03;;;0.63;;
48363;SDS011;34170;54.364;18.582;2023-02-19T08:26:40;3.30;;;1.00;;
48363;SDS011;34170;54.364;18.582;2023-02-19T08:29:08;5.07;;;0.93;;
48363;SDS011;34170;54.364;18.582;2023-02-19T08:31:35;4.45;;;1.15;;
48363;SDS011;34170;54.364;18.582;2023-02-19T08:34:04;4.82;;;1.00;;
48363;SDS011;34170;54.364;18.582;2023-02-19T08:36:31;7.93;;;1.25;;
48363;SDS011;34170;54.364;18.582;2023-02-19T08:38:58;5.18;;;0.90;;
48363;SDS011;34170;54.364;18.582;2023-02-19T08:41:26;8.48;;;1.08;;
48363;SDS011;34170;54.364;18.582;2023-02-19T08:43:54;2.95;;;0.70;;
48363;SDS011;34170;54.364;18.582;2023-02-19T08:46:21;6.38;;;1.23;;
48363;SDS011;34170;54.364;18.582;2023-02-19T08:48:49;3.47;;;0.77;;
48363;SDS011;34170;54.364;18.582;2023-02-19T08:51:16;5.32;;;0.80;;
48363;SDS011;34170;54.364;18.582;2023-02-19T08:53:44;6.63;;;1.00;;
48363;SDS011;34170;54.364;18.582;2023-02-19T08:56:13;3.70;;;0.73;;
48363;SDS011;34170;54.364;18.582;2023-02-19T08:58:42;10.90;;;1.63;;
48363;SDS011;34170;54.364;18.582;2023-02-19T09:01:10;6.88;;;0.70;;
48363;SDS011;34170;54.364;18.582;2023-02-19T09:03:41;4.65;;;1.10;;
48363;SDS011;34170;54.364;18.582;2023-02-19T09:06:11;3.50;;;0.60;;
48363;SDS011;34170;54.364;18.582;2023-02-19T09:08:40;5.55;;;0.90;;
48363;SDS011;34170;54.364;18.582;2023-02-19T09:11:08;4.25;;;0.70;;
48363;SDS011;34170;54.364;18.582;2023-02-19T09:13:36;3.55;;;0.73;;
48363;SDS011;34170;54.364;18.582;2023-02-19T09:16:04;3.28;;;1.00;;
48363;SDS011;34170;54.364;18.582;2023-02-19T09:18:32;5.68;;;1.00;;
48363;SDS011;34170;54.364;18.582;2023-02-19T09:21:00;5.95;;;1.10;;
48363;SDS011;34170;54.364;18.582;2023-02-19T09:23:33;2.63;;;0.57;;
48363;SDS011;34170;54.364;18.582;2023-02-19T09:26:03;2.42;;;0.55;;
48363;SDS011;34170;54.364;18.582;2023-02-19T09:28:32;3.85;;;0.95;;
48363;SDS011;34170;54.364;18.582;2023-02-19T09:31:04;2.90;;;0.60;;
48363;SDS011;34170;54.364;18.582;2023-02-19T09:36:00;1.98;;;0.57;;
48363;SDS011;34170;54.364;18.582;2023-02-19T09:38:28;4.30;;;0.70;;
48363;SDS011;34170;54.364;18.582;2023-02-19T09:40:57;4.63;;;0.70;;
48363;SDS011;34170;54.364;18.582;2023-02-19T09:43:31;3.72;;;0.70;;
48363;SDS011;34170;54.364;18.582;2023-02-19T09:46:01;4.60;;;1.17;;
48363;SDS011;34170;54.364;18.582;2023-02-19T09:48:48;4.00;;;0.70;;
48363;SDS011;34170;54.364;18.582;2023-02-19T09:51:16;2.28;;;0.45;;
48363;SDS011;34170;54.364;18.582;2023-02-19T09:53:44;3.13;;;0.47;;
48363;SDS011;34170;54.364;18.582;2023-02-19T09:56:15;1.95;;;0.50;;
48363;SDS011;34170;54.364;18.582;2023-02-19T09:58:50;2.90;;;0.68;;
48363;SDS011;34170;54.364;18.582;2023-02-19T10:01:20;2.13;;;0.50;;
48363;SDS011;34170;54.364;18.582;2023-02-19T10:03:50;4.22;;;0.93;;
48363;SDS011;34170;54.364;18.582;2023-02-19T10:06:19;2.40;;;0.57;;
48363;SDS011;34170;54.364;18.582;2023-02-19T10:08:59;5.20;;;0.32;;
48363;SDS011;34170;54.364;18.582;2023-02-19T10:11:48;3.65;;;0.40;;
48363;SDS011;34170;54.364;18.582;2023-02-19T10:14:37;7.82;;;0.68;;
48363;SDS011;34170;54.364;18.582;2023-02-19T10:17:14;1.40;;;0.40;;
48363;SDS011;34170;54.364;18.582;2023-02-19T10:19:50;1.33;;;0.25;;
48363;SDS011;34170;54.364;18.582;2023-02-19T10:22:19;1.65;;;0.15;;
48363;SDS011;34170;54.364;18.582;2023-02-19T10:24:48;3.42;;;0.35;;
48363;SDS011;34170;54.364;18.582;2023-02-19T10:29:46;2.88;;;0.32;;
48363;SDS011;34170;54.364;18.582;2023-02-19T10:32:17;2.03;;;0.25;;
48363;SDS011;34170;54.364;18.582;2023-02-19T10:37:43;1.58;;;0.50;;
48363;SDS011;34170;54.364;18.582;2023-02-19T10:40:19;2.53;;;0.22;;
48363;SDS011;34170;54.364;18.582;2023-02-19T10:42:51;1.73;;;0.20;;
48363;SDS011;34170;54.364;18.582;2023-02-19T10:47:50;3.25;;;0.25;;
48363;SDS011;34170;54.364;18.582;2023-02-19T10:50:26;3.78;;;0.35;;
48363;SDS011;34170;54.364;18.582;2023-02-19T10:52:58;1.55;;;0.30;;
48363;SDS011;34170;54.364;18.582;2023-02-19T10:55:28;4.88;;;0.40;;
48363;SDS011;34170;54.364;18.582;2023-02-19T10:57:56;2.97;;;0.40;;
48363;SDS011;34170;54.364;18.582;2023-02-19T11:00:26;3.80;;;0.30;;
48363;SDS011;34170;54.364;18.582;2023-02-19T11:05:53;1.80;;;0.30;;
48363;SDS011;34170;54.364;18.582;2023-02-19T11:08:26;0.60;;;0.20;;
48363;SDS011;34170;54.364;18.582;2023-02-19T11:10:55;1.02;;;0.28;;
48363;SDS011;34170;54.364;18.582;2023-02-19T11:13:25;1.50;;;0.10;;
48363;SDS011;34170;54.364;18.582;2023-02-19T11:15:58;0.60;;;0.10;;
48363;SDS011;34170;54.364;18.582;2023-02-19T11:18:28;1.70;;;0.20;;
48363;SDS011;34170;54.364;18.582;2023-02-19T11:21:05;0.68;;;0.20;;
48363;SDS011;34170;54.364;18.582;2023-02-19T11:26:17;0.80;;;0.30;;
48363;SDS011;34170;54.364;18.582;2023-02-19T11:28:54;2.13;;;0.32;;
48363;SDS011;34170;54.364;18.582;2023-02-19T11:31:32;3.30;;;0.40;;
48363;SDS011;34170;54.364;18.582;2023-02-19T11:34:03;2.45;;;0.35;;
48363;SDS011;34170;54.364;18.582;2023-02-19T11:37:09;2.45;;;0.40;;
48363;SDS011;34170;54.364;18.582;2023-02-19T11:39:40;2.10;;;0.20;;
48363;SDS011;34170;54.364;18.582;2023-02-19T11:45:34;2.97;;;0.20;;
48363;SDS011;34170;54.364;18.582;2023-02-19T11:48:18;1.27;;;0.28;;
48363;SDS011;34170;54.364;18.582;2023-02-19T11:53:53;2.05;;;0.30;;
48363;SDS011;34170;54.364;18.582;2023-02-19T11:56:35;1.30;;;0.40;;
48363;SDS011;34170;54.364;18.582;2023-02-19T11:59:11;1.48;;;0.30;;
48363;SDS011;34170;54.364;18.582;2023-02-19T12:05:15;2.85;;;0.20;;
48363;SDS011;34170;54.364;18.582;2023-02-19T12:13:22;4.10;;;0.55;;
48363;SDS011;34170;54.364;18.582;2023-02-19T12:18:47;1.30;;;0.22;;
48363;SDS011;34170;54.364;18.582;2023-02-19T12:26:46;2.05;;;0.47;;
48363;SDS011;34170;54.364;18.582;2023-02-19T12:45:26;1.10;;;0.20;;
48363;SDS011;34170;54.364;18.582;2023-02-19T12:56:33;4.13;;;0.30;;
48363;SDS011;34170;54.364;18.582;2023-02-19T12:59:14;0.98;;;0.17;;
48363;SDS011;34170;54.364;18.582;2023-02-19T13:01:51;1.08;;;0.20;;
48363;SDS011;34170;54.364;18.582;2023-02-19T13:06:58;1.52;;;0.20;;
48363;SDS011;34170;54.364;18.582;2023-02-19T13:09:38;0.98;;;0.20;;
48363;SDS011;34170;54.364;18.582;2023-02-19T13:12:25;2.30;;;0.35;;
48363;SDS011;34170;54.364;18.582;2023-02-19T13:14:58;1.95;;;0.20;;
48363;SDS011;34170;54.364;18.582;2023-02-19T13:20:23;1.95;;;0.20;;
48363;SDS011;34170;54.364;18.582;2023-02-19T13:37:24;1.77;;;0.50;;
48363;SDS011;34170;54.364;18.582;2023-02-19T13:39:53;1.40;;;0.20;;
48363;SDS011;34170;54.364;18.582;2023-02-19T13:42:30;2.17;;;0.40;;
48363;SDS011;34170;54.364;18.582;2023-02-19T13:45:03;0.95;;;0.52;;
48363;SDS011;34170;54.364;18.582;2023-02-19T13:50:23;2.47;;;0.40;;
48363;SDS011;34170;54.364;18.582;2023-02-19T13:52:53;3.63;;;0.20;;
48363;SDS011;34170;54.364;18.582;2023-02-19T14:06:05;0.63;;;0.20;;
48363;SDS011;34170;54.364;18.582;2023-02-19T14:14:27;1.48;;;0.25;;
48363;SDS011;34170;54.364;18.582;2023-02-19T14:27:50;1.30;;;0.20;;
48363;SDS011;34170;54.364;18.582;2023-02-19T14:30:19;1.52;;;0.10;;
48363;SDS011;34170;54.364;18.582;2023-02-19T14:32:50;0.47;;;0.17;;
48363;SDS011;34170;54.364;18.582;2023-02-19T14:35:37;2.75;;;0.20;;
48363;SDS011;34170;54.364;18.582;2023-02-19T14:38:16;1.60;;;0.10;;
48363;SDS011;34170;54.364;18.582;2023-02-19T14:40:47;1.90;;;0.30;;
48363;SDS011;34170;54.364;18.582;2023-02-19T14:43:17;2.55;;;0.15;;
48363;SDS011;34170;54.364;18.582;2023-02-19T14:45:48;3.67;;;0.35;;
48363;SDS011;34170;54.364;18.582;2023-02-19T14:48:21;3.25;;;0.20;;
48363;SDS011;34170;54.364;18.582;2023-02-19T14:50:53;1.08;;;0.10;;
48363;SDS011;34170;54.364;18.582;2023-02-19T14:53:25;4.07;;;0.30;;
48363;SDS011;34170;54.364;18.582;2023-02-19T14:55:54;1.45;;;0.52;;
48363;SDS011;34170;54.364;18.582;2023-02-19T14:58:27;1.90;;;0.10;;
48363;SDS011;34170;54.364;18.582;2023-02-19T15:00:59;2.35;;;0.20;;
48363;SDS011;34170;54.364;18.582;2023-02-19T15:06:33;1.50;;;0.28;;
48363;SDS011;34170;54.364;18.582;2023-02-19T15:08:56;2.30;;;0.35;;
48363;SDS011;34170;54.364;18.582;2023-02-19T15:11:26;0.80;;;0.10;;
48363;SDS011;34170;54.364;18.582;2023-02-19T15:13:59;1.10;;;0.20;;
48363;SDS011;34170;54.364;18.582;2023-02-19T15:16:32;3.15;;;0.30;;
48363;SDS011;34170;54.364;18.582;2023-02-19T15:19:04;1.42;;;0.38;;
48363;SDS011;34170;54.364;18.582;2023-02-19T15:24:04;3.75;;;0.30;;
48363;SDS011;34170;54.364;18.582;2023-02-19T15:26:34;2.33;;;0.30;;
48363;SDS011;34170;54.364;18.582;2023-02-19T15:29:08;2.25;;;0.30;;
48363;SDS011;34170;54.364;18.582;2023-02-19T15:31:47;4.93;;;0.82;;
48363;SDS011;34170;54.364;18.582;2023-02-19T15:34:23;3.33;;;0.50;;
48363;SDS011;34170;54.364;18.582;2023-02-19T15:36:54;4.70;;;0.60;;
48363;SDS011;34170;54.364;18.582;2023-02-19T15:39:35;3.38;;;0.30;;
48363;SDS011;34170;54.364;18.582;2023-02-19T15:42:19;2.15;;;0.45;;
48363;SDS011;34170;54.364;18.582;2023-02-19T15:47:46;2.38;;;0.73;;
48363;SDS011;34170;54.364;18.582;2023-02-19T15:50:21;1.00;;;0.20;;
48363;SDS011;34170;54.364;18.582;2023-02-19T15:55:44;2.10;;;0.30;;
48363;SDS011;34170;54.364;18.582;2023-02-19T15:58:35;1.38;;;0.47;;
48363;SDS011;34170;54.364;18.582;2023-02-19T16:03:39;2.63;;;0.40;;
48363;SDS011;34170;54.364;18.582;2023-02-19T16:06:09;3.63;;;0.40;;
48363;SDS011;34170;54.364;18.582;2023-02-19T16:08:41;1.35;;;0.40;;
48363;SDS011;34170;54.364;18.582;2023-02-19T16:13:49;2.55;;;1.05;;
48363;SDS011;34170;54.364;18.582;2023-02-19T16:16:26;2.22;;;0.50;;
48363;SDS011;34170;54.364;18.582;2023-02-19T16:18:57;1.63;;;0.40;;
48363;SDS011;34170;54.364;18.582;2023-02-19T16:21:25;2.38;;;0.57;;
48363;SDS011;34170;54.364;18.582;2023-02-19T16:23:58;2.60;;;0.43;;
48363;SDS011;34170;54.364;18.582;2023-02-19T16:26:38;2.20;;;0.30;;
48363;SDS011;34170;54.364;18.582;2023-02-19T16:32:16;2.15;;;0.28;;
48363;SDS011;34170;54.364;18.582;2023-02-19T16:34:45;4.30;;;0.68;;
48363;SDS011;34170;54.364;18.582;2023-02-19T16:45:26;5.30;;;1.42;;
48363;SDS011;34170;54.364;18.582;2023-02-19T16:47:54;7.35;;;1.40;;
48363;SDS011;34170;54.364;18.582;2023-02-19T16:50:22;10.23;;;1.77;;
48363;SDS011;34170;54.364;18.582;2023-02-19T16:52:55;6.68;;;1.52;;
48363;SDS011;34170;54.364;18.582;2023-02-19T16:55:23;4.95;;;1.65;;
48363;SDS011;34170;54.364;18.582;2023-02-19T16:57:52;6.78;;;1.25;;
48363;SDS011;34170;54.364;18.582;2023-02-19T17:00:20;8.30;;;1.35;;
48363;SDS011;34170;54.364;18.582;2023-02-19T17:02:50;6.55;;;1.33;;
48363;SDS011;34170;54.364;18.582;2023-02-19T17:05:20;8.50;;;1.92;;
48363;SDS011;34170;54.364;18.582;2023-02-19T17:07:49;9.50;;;2.10;;
48363;SDS011;34170;54.364;18.582;2023-02-19T17:10:21;6.35;;;1.35;;
48363;SDS011;34170;54.364;18.582;2023-02-19T17:12:52;8.48;;;1.40;;
48363;SDS011;34170;54.364;18.582;2023-02-19T17:15:21;6.00;;;1.05;;
48363;SDS011;34170;54.364;18.582;2023-02-19T17:17:49;5.07;;;1.20;;
48363;SDS011;34170;54.364;18.582;2023-02-19T17:20:18;4.97;;;1.30;;
48363;SDS011;34170;54.364;18.582;2023-02-19T17:22:54;6.25;;;1.58;;
48363;SDS011;34170;54.364;18.582;2023-02-19T17:25:22;8.18;;;1.80;;
48363;SDS011;34170;54.364;18.582;2023-02-19T17:27:49;7.57;;;1.80;;
48363;SDS011;34170;54.364;18.582;2023-02-19T17:30:35;7.65;;;1.70;;
48363;SDS011;34170;54.364;18.582;2023-02-19T17:33:05;6.93;;;1.58;;
48363;SDS011;34170;54.364;18.582;2023-02-19T17:35:33;5.18;;;1.33;;
48363;SDS011;34170;54.364;18.582;2023-02-19T17:38:00;6.60;;;2.03;;
48363;SDS011;34170;54.364;18.582;2023-02-19T17:40:35;7.15;;;1.77;;
48363;SDS011;34170;54.364;18.582;2023-02-19T17:43:03;5.93;;;1.30;;
48363;SDS011;34170;54.364;18.582;2023-02-19T17:45:31;5.15;;;1.40;;
48363;SDS011;34170;54.364;18.582;2023-02-19T17:47:59;8.00;;;1.55;;
48363;SDS011;34170;54.364;18.582;2023-02-19T17:50:28;4.05;;;0.98;;
48363;SDS011;34170;54.364;18.582;2023-02-19T17:52:58;6.55;;;1.50;;
48363;SDS011;34170;54.364;18.582;2023-02-19T17:55:25;4.95;;;1.25;;
48363;SDS011;34170;54.364;18.582;2023-02-19T17:57:55;5.65;;;1.50;;